»·PEaware :: DAL209 KSBA-KBUR

DAL209 :: KSBA-KBUR

FLIGHT INFORMATION

Flight Status: Arrived
Operator:
Delta Air Lines
More flights by this operator :: More flights under this callsign
Pilot: Ray S. (4509)
Aircraft: BEECH AIRCRAFT BEECH AIRLINER
(B190)
More flights by this aircraft type
Origin: KSBA Santa Barbara Mun
United States
Destination: KBUR Bob Hope-Burbank
United States
More flights between these airports :: More routes between these airports
Route: HENER V186 FIM
File this flight plan on PilotEdge
Remarks: We have no idea what we're doing!
Altitude:
(Current/Filed)
11,000ft
Speed:
(Current/Filed)
250kts
Departed: 29-Jan-19 07:23 PM
Arrived: 29-Jan-19 07:45 PM
Distance/Time
Traveled:
75nm/0:22
Distance/Time
To Go:
Arrived

Flight Plot

Page will automatically refresh every two minutes.


Map Options




Map Legend


Flown Route
Filed Route
Departure Airport
Arrival Airport
Navaid (VOR, NDB)
Fix

Horizontal Profiles

Position Reports

Time Latitude Longitude Heading Altitude Ground
Speed
29-Jan-19 19:02 34.424076 -119.836658 81 12ft 0kts
29-Jan-19 19:03 34.424076 -119.836658 81 12ft 0kts
29-Jan-19 19:04 34.424076 -119.836658 81 12ft 0kts
29-Jan-19 19:05 34.424076 -119.836658 81 12ft 0kts
29-Jan-19 19:06 34.424076 -119.836658 81 12ft 0kts
29-Jan-19 19:07 34.424076 -119.836658 81 12ft 0kts
29-Jan-19 19:08 34.424076 -119.836658 81 12ft 0kts
29-Jan-19 19:09 34.424076 -119.836657 81 12ft 0kts
29-Jan-19 19:10 34.424076 -119.836657 81 12ft 0kts
29-Jan-19 19:11 34.424076 -119.836657 81 12ft 0kts
29-Jan-19 19:12 34.424076 -119.836657 81 12ft 0kts
29-Jan-19 19:13 34.424048 -119.836945 85 12ft 0kts
29-Jan-19 19:14 34.424101 -119.837355 323 13ft 4kts
29-Jan-19 19:15 34.426529 -119.838308 345 12ft 6kts
29-Jan-19 19:16 34.426944 -119.838439 344 12ft 1kts
29-Jan-19 19:17 34.429867 -119.839316 346 15ft 10kts
29-Jan-19 19:19 34.430490 -119.839482 347 15ft 0kts
29-Jan-19 19:20 34.430490 -119.839482 347 15ft 0kts
29-Jan-19 19:21 34.430534 -119.839504 328 15ft 1kts
29-Jan-19 19:22 34.430302 -119.840235 166 15ft 0kts
29-Jan-19 19:23 34.402880 -119.829596 161 1066ft 164kts
29-Jan-19 19:24 34.362984 -119.796148 122 3789ft 191kts
29-Jan-19 19:25 34.336702 -119.738868 112 6293ft 200kts
29-Jan-19 19:26 34.330010 -119.669466 87 8400ft 218kts
29-Jan-19 19:27 34.336978 -119.589895 87 9066ft 257kts
29-Jan-19 19:28 34.343009 -119.500010 89 9362ft 266kts
29-Jan-19 19:29 34.352057 -119.408249 85 9366ft 276kts
29-Jan-19 19:30 34.360455 -119.323534 87 9365ft 272kts
29-Jan-19 19:31 34.367622 -119.225891 90 9365ft 270kts
29-Jan-19 19:32 34.371824 -119.135276 91 9365ft 270kts
29-Jan-19 19:33 34.375771 -119.044209 91 9366ft 270kts
29-Jan-19 19:34 34.376307 -118.954202 115 9371ft 259kts
29-Jan-19 19:35 34.345528 -118.876409 128 8556ft 255kts
29-Jan-19 19:36 34.303701 -118.807385 131 7570ft 255kts
29-Jan-19 19:37 34.263302 -118.737206 131 6565ft 244kts
29-Jan-19 19:38 34.224354 -118.677391 131 5526ft 215kts
29-Jan-19 19:38 34.200070 -118.626592 93 4798ft 210kts
29-Jan-19 19:39 34.199578 -118.556836 90 3895ft 204kts
29-Jan-19 19:41 34.200077 -118.484416 88 2565ft 162kts
29-Jan-19 19:42 34.198973 -118.434955 90 1908ft 134kts
29-Jan-19 19:42 34.198216 -118.398510 90 1241ft 128kts
29-Jan-19 19:43 34.197716 -118.357863 90 712ft 79kts
29-Jan-19 19:45 34.197019 -118.352336 182 699ft 0kts
29-Jan-19 19:45 34.197019 -118.352336 182 699ft 0kts
29-Jan-19 19:46 34.197019 -118.352336 182 699ft 0kts
29-Jan-19 19:47 34.197019 -118.352336 182 699ft 0kts
29-Jan-19 19:48 34.197019 -118.352336 182 699ft 0kts
29-Jan-19 19:49 34.197019 -118.352336 182 699ft 0kts
29-Jan-19 19:50 34.197019 -118.352336 182 699ft 0kts
29-Jan-19 19:51 34.197019 -118.352336 182 699ft 0kts
29-Jan-19 19:52 34.197019 -118.352336 182 699ft 0kts
29-Jan-19 19:53 34.197019 -118.352336 182 699ft 0kts
29-Jan-19 19:54 34.197019 -118.352336 182 699ft 0kts
29-Jan-19 19:55 34.197019 -118.352336 182 699ft 0kts
29-Jan-19 19:56 34.197019 -118.352336 182 699ft 0kts
29-Jan-19 19:57 34.197019 -118.352336 182 699ft 0kts
29-Jan-19 19:58 34.197019 -118.352336 182 699ft 0kts

Navigation Log

Ident Type
Flight plan parsing failed, navigation log unavailable